sensor_id;sensor_type;location;lat;lon;timestamp;temperature;humidity
21849;DHT22;11089;49.852;19.700;2023-07-13T00:02:40;20.60;1.00
21849;DHT22;11089;49.852;19.700;2023-07-13T00:05:41;20.40;1.00
21849;DHT22;11089;49.852;19.700;2023-07-13T00:08:43;20.50;99.90
21849;DHT22;11089;49.852;19.700;2023-07-13T00:11:45;20.60;32.70
21849;DHT22;11089;49.852;19.700;2023-07-13T00:14:48;20.40;99.90
21849;DHT22;11089;49.852;19.700;2023-07-13T00:17:52;20.40;1.00
21849;DHT22;11089;49.852;19.700;2023-07-13T00:20:53;20.40;99.90
21849;DHT22;11089;49.852;19.700;2023-07-13T00:23:54;20.30;1.00
21849;DHT22;11089;49.852;19.700;2023-07-13T00:26:55;20.40;1.00
21849;DHT22;11089;49.852;19.700;2023-07-13T00:29:58;20.30;64.90
21849;DHT22;11089;49.852;19.700;2023-07-13T00:32:59;20.20;1.00
21849;DHT22;11089;49.852;19.700;2023-07-13T00:36:02;20.40;99.90
21849;DHT22;11089;49.852;19.700;2023-07-13T00:39:03;20.40;1.00
21849;DHT22;11089;49.852;19.700;2023-07-13T00:42:04;20.40;99.90
21849;DHT22;11089;49.852;19.700;2023-07-13T00:48:15;20.30;1.00
21849;DHT22;11089;49.852;19.700;2023-07-13T00:51:21;20.30;99.90
21849;DHT22;11089;49.852;19.700;2023-07-13T00:54:30;20.00;99.90
21849;DHT22;11089;49.852;19.700;2023-07-13T00:57:33;20.00;99.90
21849;DHT22;11089;49.852;19.700;2023-07-13T01:00:35;20.20;99.90
21849;DHT22;11089;49.852;19.700;2023-07-13T01:03:37;20.30;1.00
21849;DHT22;11089;49.852;19.700;2023-07-13T01:06:39;20.30;1.00
21849;DHT22;11089;49.852;19.700;2023-07-13T01:09:41;20.10;1.00
21849;DHT22;11089;49.852;19.700;2023-07-13T01:12:42;20.10;99.90
21849;DHT22;11089;49.852;19.700;2023-07-13T01:15:46;20.20;99.90
21849;DHT22;11089;49.852;19.700;2023-07-13T01:18:47;20.20;99.90
21849;DHT22;11089;49.852;19.700;2023-07-13T01:21:52;20.10;99.90
21849;DHT22;11089;49.852;19.700;2023-07-13T01:24:54;20.10;1.00
21849;DHT22;11089;49.852;19.700;2023-07-13T01:27:55;20.10;99.90
21849;DHT22;11089;49.852;19.700;2023-07-13T01:30:58;20.20;89.30
21849;DHT22;11089;49.852;19.700;2023-07-13T01:33:59;20.10;1.00
21849;DHT22;11089;49.852;19.700;2023-07-13T01:37:00;20.10;99.90
21849;DHT22;11089;49.852;19.700;2023-07-13T01:40:02;20.20;67.90
21849;DHT22;11089;49.852;19.700;2023-07-13T01:43:03;20.20;1.00
21849;DHT22;11089;49.852;19.700;2023-07-13T01:46:04;20.20;1.00
21849;DHT22;11089;49.852;19.700;2023-07-13T01:49:05;20.10;99.90
21849;DHT22;11089;49.852;19.700;2023-07-13T01:52:07;20.10;99.90
21849;DHT22;11089;49.852;19.700;2023-07-13T01:55:08;20.00;1.00
21849;DHT22;11089;49.852;19.700;2023-07-13T01:58:09;20.00;99.90
21849;DHT22;11089;49.852;19.700;2023-07-13T02:01:10;19.90;1.00
21849;DHT22;11089;49.852;19.700;2023-07-13T02:04:11;19.80;1.00
21849;DHT22;11089;49.852;19.700;2023-07-13T02:07:12;19.70;99.90
21849;DHT22;11089;49.852;19.700;2023-07-13T02:10:13;19.80;1.00
21849;DHT22;11089;49.852;19.700;2023-07-13T02:13:14;19.70;1.00
21849;DHT22;11089;49.852;19.700;2023-07-13T02:16:15;19.50;1.00
21849;DHT22;11089;49.852;19.700;2023-07-13T02:19:16;19.60;48.80
21849;DHT22;11089;49.852;19.700;2023-07-13T02:22:17;19.60;99.90
21849;DHT22;11089;49.852;19.700;2023-07-13T02:25:18;19.50;99.90
21849;DHT22;11089;49.852;19.700;2023-07-13T02:28:19;19.50;99.90
21849;DHT22;11089;49.852;19.700;2023-07-13T02:31:20;19.50;99.90
21849;DHT22;11089;49.852;19.700;2023-07-13T02:34:21;19.50;99.90
21849;DHT22;11089;49.852;19.700;2023-07-13T02:37:21;19.40;99.90
21849;DHT22;11089;49.852;19.700;2023-07-13T02:40:23;19.40;99.90
21849;DHT22;11089;49.852;19.700;2023-07-13T02:43:24;19.40;99.90
21849;DHT22;11089;49.852;19.700;2023-07-13T02:46:24;19.40;99.90
21849;DHT22;11089;49.852;19.700;2023-07-13T02:49:26;19.30;99.90
21849;DHT22;11089;49.852;19.700;2023-07-13T02:52:27;19.30;99.90
21849;DHT22;11089;49.852;19.700;2023-07-13T02:55:28;19.40;99.90
21849;DHT22;11089;49.852;19.700;2023-07-13T02:58:29;19.40;99.90
21849;DHT22;11089;49.852;19.700;2023-07-13T03:01:30;19.50;1.00
21849;DHT22;11089;49.852;19.700;2023-07-13T03:04:35;19.50;1.00
21849;DHT22;11089;49.852;19.700;2023-07-13T03:07:36;19.50;76.50
21849;DHT22;11089;49.852;19.700;2023-07-13T03:10:37;19.60;1.00
21849;DHT22;11089;49.852;19.700;2023-07-13T03:13:41;19.70;99.90
21849;DHT22;11089;49.852;19.700;2023-07-13T03:16:42;19.60;1.00
21849;DHT22;11089;49.852;19.700;2023-07-13T03:19:43;19.70;1.00
21849;DHT22;11089;49.852;19.700;2023-07-13T03:22:44;19.70;1.00
21849;DHT22;11089;49.852;19.700;2023-07-13T03:25:45;19.60;1.00
21849;DHT22;11089;49.852;19.700;2023-07-13T03:28:46;19.50;1.00
21849;DHT22;11089;49.852;19.700;2023-07-13T03:31:47;19.40;1.00
21849;DHT22;11089;49.852;19.700;2023-07-13T03:34:48;19.30;1.00
21849;DHT22;11089;49.852;19.700;2023-07-13T03:37:49;19.20;99.90
21849;DHT22;11089;49.852;19.700;2023-07-13T03:40:52;19.00;99.90
21849;DHT22;11089;49.852;19.700;2023-07-13T03:43:54;19.10;99.90
21849;DHT22;11089;49.852;19.700;2023-07-13T03:46:55;19.30;99.90
21849;DHT22;11089;49.852;19.700;2023-07-13T03:49:56;19.40;1.00
21849;DHT22;11089;49.852;19.700;2023-07-13T03:52:58;19.40;99.90
21849;DHT22;11089;49.852;19.700;2023-07-13T03:55:59;19.30;99.90
21849;DHT22;11089;49.852;19.700;2023-07-13T03:59:00;19.30;90.80
21849;DHT22;11089;49.852;19.700;2023-07-13T04:02:02;19.40;1.00
21849;DHT22;11089;49.852;19.700;2023-07-13T04:05:05;19.50;1.00
21849;DHT22;11089;49.852;19.700;2023-07-13T04:08:07;19.50;99.90
21849;DHT22;11089;49.852;19.700;2023-07-13T04:11:08;19.60;99.90
21849;DHT22;11089;49.852;19.700;2023-07-13T04:14:09;19.60;99.90
21849;DHT22;11089;49.852;19.700;2023-07-13T04:17:10;19.60;1.00
21849;DHT22;11089;49.852;19.700;2023-07-13T04:20:11;19.70;1.00
21849;DHT22;11089;49.852;19.700;2023-07-13T04:23:12;19.80;1.00
21849;DHT22;11089;49.852;19.700;2023-07-13T04:26:13;19.90;1.00
21849;DHT22;11089;49.852;19.700;2023-07-13T04:29:14;19.90;1.00
21849;DHT22;11089;49.852;19.700;2023-07-13T04:32:15;20.00;1.00
21849;DHT22;11089;49.852;19.700;2023-07-13T04:35:16;20.10;1.00
21849;DHT22;11089;49.852;19.700;2023-07-13T04:38:18;20.20;1.00
21849;DHT22;11089;49.852;19.700;2023-07-13T04:41:20;20.30;99.90
21849;DHT22;11089;49.852;19.700;2023-07-13T04:44:21;20.30;1.00
21849;DHT22;11089;49.852;19.700;2023-07-13T04:47:22;20.30;99.90
21849;DHT22;11089;49.852;19.700;2023-07-13T04:50:23;20.40;1.00
21849;DHT22;11089;49.852;19.700;2023-07-13T04:53:24;20.50;99.90
21849;DHT22;11089;49.852;19.700;2023-07-13T04:56:25;20.60;99.90
21849;DHT22;11089;49.852;19.700;2023-07-13T04:59:26;20.60;99.90
21849;DHT22;11089;49.852;19.700;2023-07-13T05:02:27;20.70;1.00
21849;DHT22;11089;49.852;19.700;2023-07-13T05:05:29;20.80;58.40
21849;DHT22;11089;49.852;19.700;2023-07-13T05:08:30;20.90;99.90
21849;DHT22;11089;49.852;19.700;2023-07-13T05:11:30;21.00;99.90
21849;DHT22;11089;49.852;19.700;2023-07-13T05:14:31;21.00;99.90
21849;DHT22;11089;49.852;19.700;2023-07-13T05:17:32;21.10;99.90
21849;DHT22;11089;49.852;19.700;2023-07-13T05:20:33;21.00;99.90
21849;DHT22;11089;49.852;19.700;2023-07-13T05:23:35;21.10;99.90
21849;DHT22;11089;49.852;19.700;2023-07-13T05:26:37;21.20;99.90
21849;DHT22;11089;49.852;19.700;2023-07-13T05:29:37;21.30;99.90
21849;DHT22;11089;49.852;19.700;2023-07-13T05:32:39;21.50;99.90
21849;DHT22;11089;49.852;19.700;2023-07-13T05:35:40;21.50;1.00
21849;DHT22;11089;49.852;19.700;2023-07-13T05:38:41;21.70;99.90
21849;DHT22;11089;49.852;19.700;2023-07-13T05:41:42;21.70;1.00
21849;DHT22;11089;49.852;19.700;2023-07-13T05:44:43;21.60;1.00
21849;DHT22;11089;49.852;19.700;2023-07-13T05:47:43;21.50;26.10
21849;DHT22;11089;49.852;19.700;2023-07-13T05:50:44;21.70;1.00
21849;DHT22;11089;49.852;19.700;2023-07-13T05:53:45;21.80;1.00
21849;DHT22;11089;49.852;19.700;2023-07-13T05:56:46;21.80;99.90
21849;DHT22;11089;49.852;19.700;2023-07-13T05:59:47;21.80;99.90
21849;DHT22;11089;49.852;19.700;2023-07-13T06:02:48;21.80;1.00
21849;DHT22;11089;49.852;19.700;2023-07-13T06:05:49;21.90;99.90
21849;DHT22;11089;49.852;19.700;2023-07-13T06:08:50;22.00;1.00
21849;DHT22;11089;49.852;19.700;2023-07-13T06:11:51;22.10;1.00
21849;DHT22;11089;49.852;19.700;2023-07-13T06:14:52;22.10;99.90
21849;DHT22;11089;49.852;19.700;2023-07-13T06:17:53;22.20;1.00
21849;DHT22;11089;49.852;19.700;2023-07-13T06:20:54;22.30;1.00
21849;DHT22;11089;49.852;19.700;2023-07-13T06:23:55;22.40;99.90
21849;DHT22;11089;49.852;19.700;2023-07-13T06:26:56;22.40;99.90
21849;DHT22;11089;49.852;19.700;2023-07-13T06:29:57;22.50;99.90
21849;DHT22;11089;49.852;19.700;2023-07-13T06:32:58;22.70;99.90
21849;DHT22;11089;49.852;19.700;2023-07-13T06:35:59;22.80;1.00
21849;DHT22;11089;49.852;19.700;2023-07-13T06:39:00;22.90;1.00
21849;DHT22;11089;49.852;19.700;2023-07-13T06:42:01;22.80;1.00
21849;DHT22;11089;49.852;19.700;2023-07-13T06:45:02;22.90;99.90
21849;DHT22;11089;49.852;19.700;2023-07-13T06:48:03;23.10;1.00
21849;DHT22;11089;49.852;19.700;2023-07-13T06:51:04;23.30;1.00
21849;DHT22;11089;49.852;19.700;2023-07-13T06:54:05;23.40;1.00
21849;DHT22;11089;49.852;19.700;2023-07-13T06:57:06;23.60;99.90
21849;DHT22;11089;49.852;19.700;2023-07-13T07:00:08;23.50;1.00
21849;DHT22;11089;49.852;19.700;2023-07-13T07:03:10;23.60;1.00
21849;DHT22;11089;49.852;19.700;2023-07-13T07:06:19;23.70;99.90
21849;DHT22;11089;49.852;19.700;2023-07-13T07:09:21;23.60;1.00
21849;DHT22;11089;49.852;19.700;2023-07-13T07:12:21;23.60;41.00
21849;DHT22;11089;49.852;19.700;2023-07-13T07:15:22;23.80;99.90
21849;DHT22;11089;49.852;19.700;2023-07-13T07:18:24;23.90;99.90
21849;DHT22;11089;49.852;19.700;2023-07-13T07:21:24;24.00;1.00
21849;DHT22;11089;49.852;19.700;2023-07-13T07:24:26;24.10;1.00
21849;DHT22;11089;49.852;19.700;2023-07-13T07:27:27;24.20;1.00
21849;DHT22;11089;49.852;19.700;2023-07-13T07:30:28;24.20;1.00
21849;DHT22;11089;49.852;19.700;2023-07-13T07:33:29;24.20;17.80
21849;DHT22;11089;49.852;19.700;2023-07-13T07:36:30;24.30;99.90
21849;DHT22;11089;49.852;19.700;2023-07-13T07:39:31;24.30;1.00
21849;DHT22;11089;49.852;19.700;2023-07-13T07:42:32;24.40;1.00
21849;DHT22;11089;49.852;19.700;2023-07-13T07:45:34;24.60;1.00
21849;DHT22;11089;49.852;19.700;2023-07-13T07:48:35;24.80;1.00
21849;DHT22;11089;49.852;19.700;2023-07-13T07:51:36;24.90;1.00
21849;DHT22;11089;49.852;19.700;2023-07-13T07:54:37;25.00;1.00
21849;DHT22;11089;49.852;19.700;2023-07-13T07:57:38;25.10;99.90
21849;DHT22;11089;49.852;19.700;2023-07-13T08:00:39;25.20;99.90
21849;DHT22;11089;49.852;19.700;2023-07-13T08:03:41;25.30;99.90
21849;DHT22;11089;49.852;19.700;2023-07-13T08:06:42;25.30;99.90
21849;DHT22;11089;49.852;19.700;2023-07-13T08:09:42;25.40;1.00
21849;DHT22;11089;49.852;19.700;2023-07-13T08:12:44;25.30;99.90
21849;DHT22;11089;49.852;19.700;2023-07-13T08:15:45;25.30;99.90
21849;DHT22;11089;49.852;19.700;2023-07-13T08:18:46;25.40;99.90
21849;DHT22;11089;49.852;19.700;2023-07-13T08:21:47;25.40;99.90
21849;DHT22;11089;49.852;19.700;2023-07-13T08:24:49;25.50;99.90
21849;DHT22;11089;49.852;19.700;2023-07-13T08:27:56;25.50;99.90
21849;DHT22;11089;49.852;19.700;2023-07-13T08:31:02;25.50;99.90
21849;DHT22;11089;49.852;19.700;2023-07-13T08:34:03;25.40;1.00
21849;DHT22;11089;49.852;19.700;2023-07-13T08:37:04;25.30;1.00
21849;DHT22;11089;49.852;19.700;2023-07-13T08:40:07;25.20;1.00
21849;DHT22;11089;49.852;19.700;2023-07-13T08:43:15;25.10;1.00
21849;DHT22;11089;49.852;19.700;2023-07-13T08:46:21;25.10;1.00
21849;DHT22;11089;49.852;19.700;2023-07-13T08:49:25;25.10;1.00
21849;DHT22;11089;49.852;19.700;2023-07-13T08:52:36;25.00;1.00
21849;DHT22;11089;49.852;19.700;2023-07-13T08:55:38;24.80;99.90
21849;DHT22;11089;49.852;19.700;2023-07-13T08:58:40;24.90;99.90
21849;DHT22;11089;49.852;19.700;2023-07-13T09:05:06;24.80;1.00
21849;DHT22;11089;49.852;19.700;2023-07-13T09:11:48;24.70;1.00
21849;DHT22;11089;49.852;19.700;2023-07-13T09:14:54;24.70;1.00
21849;DHT22;11089;49.852;19.700;2023-07-13T09:18:04;24.70;1.00
21849;DHT22;11089;49.852;19.700;2023-07-13T09:21:17;24.70;1.00
21849;DHT22;11089;49.852;19.700;2023-07-13T09:24:41;24.60;56.20
21849;DHT22;11089;49.852;19.700;2023-07-13T09:27:47;24.60;1.00
21849;DHT22;11089;49.852;19.700;2023-07-13T09:31:11;24.50;1.00
21849;DHT22;11089;49.852;19.700;2023-07-13T09:34:14;24.40;1.00
21849;DHT22;11089;49.852;19.700;2023-07-13T09:37:16;24.40;1.00
21849;DHT22;11089;49.852;19.700;2023-07-13T09:44:09;24.40;99.90
21849;DHT22;11089;49.852;19.700;2023-07-13T09:47:29;24.40;1.00
21849;DHT22;11089;49.852;19.700;2023-07-13T09:50:30;24.30;99.90
21849;DHT22;11089;49.852;19.700;2023-07-13T09:53:31;24.20;99.90
21849;DHT22;11089;49.852;19.700;2023-07-13T09:56:32;23.90;1.00
21849;DHT22;11089;49.852;19.700;2023-07-13T09:59:35;23.80;1.00
21849;DHT22;11089;49.852;19.700;2023-07-13T10:02:40;23.80;99.90
21849;DHT22;11089;49.852;19.700;2023-07-13T10:05:44;23.80;1.00
21849;DHT22;11089;49.852;19.700;2023-07-13T10:08:46;23.70;99.90
21849;DHT22;11089;49.852;19.700;2023-07-13T10:11:50;23.60;99.90
21849;DHT22;11089;49.852;19.700;2023-07-13T10:14:54;23.60;99.90
21849;DHT22;11089;49.852;19.700;2023-07-13T10:17:56;23.50;23.40
21849;DHT22;11089;49.852;19.700;2023-07-13T10:21:12;23.50;1.00
21849;DHT22;11089;49.852;19.700;2023-07-13T10:24:20;23.50;99.90
21849;DHT22;11089;49.852;19.700;2023-07-13T10:27:56;23.30;1.00
21849;DHT22;11089;49.852;19.700;2023-07-13T10:31:00;23.30;1.00
21849;DHT22;11089;49.852;19.700;2023-07-13T10:34:02;23.20;1.00
21849;DHT22;11089;49.852;19.700;2023-07-13T10:37:05;23.20;99.90
21849;DHT22;11089;49.852;19.700;2023-07-13T10:40:15;23.10;99.90
21849;DHT22;11089;49.852;19.700;2023-07-13T10:43:21;23.00;99.90
21849;DHT22;11089;49.852;19.700;2023-07-13T10:46:27;23.10;1.00
21849;DHT22;11089;49.852;19.700;2023-07-13T10:49:31;23.10;1.00
21849;DHT22;11089;49.852;19.700;2023-07-13T10:52:44;23.20;1.00
21849;DHT22;11089;49.852;19.700;2023-07-13T10:59:05;22.60;1.00
21849;DHT22;11089;49.852;19.700;2023-07-13T11:02:25;22.30;99.90
21849;DHT22;11089;49.852;19.700;2023-07-13T11:05:30;22.10;99.90
21849;DHT22;11089;49.852;19.700;2023-07-13T11:08:37;21.90;99.90
21849;DHT22;11089;49.852;19.700;2023-07-13T11:11:39;21.80;46.40
21849;DHT22;11089;49.852;19.700;2023-07-13T11:15:02;21.80;1.00
21849;DHT22;11089;49.852;19.700;2023-07-13T11:18:21;21.60;1.00
21849;DHT22;11089;49.852;19.700;2023-07-13T11:21:26;21.60;1.00
21849;DHT22;11089;49.852;19.700;2023-07-13T11:30:47;21.50;1.00
21849;DHT22;11089;49.852;19.700;2023-07-13T11:33:55;21.40;1.00
21849;DHT22;11089;49.852;19.700;2023-07-13T11:36:58;21.00;99.90
21849;DHT22;11089;49.852;19.700;2023-07-13T11:39:59;20.90;1.00
21849;DHT22;11089;49.852;19.700;2023-07-13T11:43:02;20.70;1.00
21849;DHT22;11089;49.852;19.700;2023-07-13T11:46:18;20.50;1.00
21849;DHT22;11089;49.852;19.700;2023-07-13T11:49:25;20.40;1.00
21849;DHT22;11089;49.852;19.700;2023-07-13T11:52:35;20.30;99.90
21849;DHT22;11089;49.852;19.700;2023-07-13T11:55:38;20.20;1.00
21849;DHT22;11089;49.852;19.700;2023-07-13T11:58:39;20.10;1.00
21849;DHT22;11089;49.852;19.700;2023-07-13T12:01:47;20.20;99.90
21849;DHT22;11089;49.852;19.700;2023-07-13T12:04:50;20.10;1.00
21849;DHT22;11089;49.852;19.700;2023-07-13T12:07:53;20.10;99.90
21849;DHT22;11089;49.852;19.700;2023-07-13T12:11:01;20.10;1.00
21849;DHT22;11089;49.852;19.700;2023-07-13T12:14:05;19.90;99.90
21849;DHT22;11089;49.852;19.700;2023-07-13T12:17:16;19.90;99.90
21849;DHT22;11089;49.852;19.700;2023-07-13T12:20:33;19.80;99.90
21849;DHT22;11089;49.852;19.700;2023-07-13T12:23:35;19.70;1.00
21849;DHT22;11089;49.852;19.700;2023-07-13T12:26:37;19.70;99.90
21849;DHT22;11089;49.852;19.700;2023-07-13T12:29:37;19.80;1.00
21849;DHT22;11089;49.852;19.700;2023-07-13T12:32:38;19.70;1.00
21849;DHT22;11089;49.852;19.700;2023-07-13T12:35:49;19.60;1.00
21849;DHT22;11089;49.852;19.700;2023-07-13T12:38:51;19.60;99.90
21849;DHT22;11089;49.852;19.700;2023-07-13T12:41:53;19.70;1.00
21849;DHT22;11089;49.852;19.700;2023-07-13T12:45:01;19.90;99.90
21849;DHT22;11089;49.852;19.700;2023-07-13T12:48:15;19.80;1.00
21849;DHT22;11089;49.852;19.700;2023-07-13T12:51:17;20.10;99.90
21849;DHT22;11089;49.852;19.700;2023-07-13T12:54:21;20.20;1.00
21849;DHT22;11089;49.852;19.700;2023-07-13T12:57:23;20.30;99.90
21849;DHT22;11089;49.852;19.700;2023-07-13T13:00:33;20.20;1.00
21849;DHT22;11089;49.852;19.700;2023-07-13T13:03:38;20.10;99.90
21849;DHT22;11089;49.852;19.700;2023-07-13T13:06:39;20.10;99.90
21849;DHT22;11089;49.852;19.700;2023-07-13T13:09:42;20.10;1.00
21849;DHT22;11089;49.852;19.700;2023-07-13T13:12:43;20.00;1.00
21849;DHT22;11089;49.852;19.700;2023-07-13T13:15:44;19.90;1.00
21849;DHT22;11089;49.852;19.700;2023-07-13T13:18:45;20.00;99.90
21849;DHT22;11089;49.852;19.700;2023-07-13T13:21:46;20.20;99.90
21849;DHT22;11089;49.852;19.700;2023-07-13T13:24:47;20.40;1.00
21849;DHT22;11089;49.852;19.700;2023-07-13T13:27:49;20.30;1.00
21849;DHT22;11089;49.852;19.700;2023-07-13T13:30:51;20.30;99.90
21849;DHT22;11089;49.852;19.700;2023-07-13T13:33:52;20.30;99.90
21849;DHT22;11089;49.852;19.700;2023-07-13T13:36:53;20.50;1.00
21849;DHT22;11089;49.852;19.700;2023-07-13T13:39:55;20.60;1.00
21849;DHT22;11089;49.852;19.700;2023-07-13T13:42:56;20.50;1.00
21849;DHT22;11089;49.852;19.700;2023-07-13T13:45:59;20.70;1.00
21849;DHT22;11089;49.852;19.700;2023-07-13T13:49:03;21.00;1.00
21849;DHT22;11089;49.852;19.700;2023-07-13T13:52:04;21.00;99.90
21849;DHT22;11089;49.852;19.700;2023-07-13T13:55:12;21.00;99.90
21849;DHT22;11089;49.852;19.700;2023-07-13T13:58:13;21.20;28.00
21849;DHT22;11089;49.852;19.700;2023-07-13T14:01:19;21.20;1.00
21849;DHT22;11089;49.852;19.700;2023-07-13T14:04:22;21.20;99.90
21849;DHT22;11089;49.852;19.700;2023-07-13T14:07:23;21.10;75.00
21849;DHT22;11089;49.852;19.700;2023-07-13T14:10:24;21.10;98.10
21849;DHT22;11089;49.852;19.700;2023-07-13T14:13:33;21.10;99.90
21849;DHT22;11089;49.852;19.700;2023-07-13T14:16:36;21.10;1.00
21849;DHT22;11089;49.852;19.700;2023-07-13T14:19:37;21.20;1.00
21849;DHT22;11089;49.852;19.700;2023-07-13T14:22:39;21.10;1.00
21849;DHT22;11089;49.852;19.700;2023-07-13T14:25:40;21.00;99.90
21849;DHT22;11089;49.852;19.700;2023-07-13T14:28:43;21.20;1.00
21849;DHT22;11089;49.852;19.700;2023-07-13T14:31:44;21.40;1.00
21849;DHT22;11089;49.852;19.700;2023-07-13T14:34:45;21.50;1.00
21849;DHT22;11089;49.852;19.700;2023-07-13T14:37:47;21.60;1.00
21849;DHT22;11089;49.852;19.700;2023-07-13T14:40:48;21.60;1.00
21849;DHT22;11089;49.852;19.700;2023-07-13T14:43:49;21.60;1.00
21849;DHT22;11089;49.852;19.700;2023-07-13T14:46:51;21.60;1.00
21849;DHT22;11089;49.852;19.700;2023-07-13T14:49:52;21.70;1.00
21849;DHT22;11089;49.852;19.700;2023-07-13T14:52:53;21.80;18.70
21849;DHT22;11089;49.852;19.700;2023-07-13T14:55:54;21.70;99.90
21849;DHT22;11089;49.852;19.700;2023-07-13T14:58:55;21.60;1.00
21849;DHT22;11089;49.852;19.700;2023-07-13T15:01:56;21.40;99.90
21849;DHT22;11089;49.852;19.700;2023-07-13T15:04:58;21.50;99.90
21849;DHT22;11089;49.852;19.700;2023-07-13T15:08:03;21.60;1.00
21849;DHT22;11089;49.852;19.700;2023-07-13T15:11:04;21.60;2.90
21849;DHT22;11089;49.852;19.700;2023-07-13T15:14:05;21.70;99.90
21849;DHT22;11089;49.852;19.700;2023-07-13T15:17:24;21.80;99.90
21849;DHT22;11089;49.852;19.700;2023-07-13T15:20:32;21.80;1.00
21849;DHT22;11089;49.852;19.700;2023-07-13T15:23:34;21.70;99.90
21849;DHT22;11089;49.852;19.700;2023-07-13T15:26:35;21.70;99.90
21849;DHT22;11089;49.852;19.700;2023-07-13T15:29:36;21.60;99.90
21849;DHT22;11089;49.852;19.700;2023-07-13T15:32:37;21.50;1.00
21849;DHT22;11089;49.852;19.700;2023-07-13T15:35:40;21.40;1.00
21849;DHT22;11089;49.852;19.700;2023-07-13T15:38:42;21.50;1.00
21849;DHT22;11089;49.852;19.700;2023-07-13T15:41:45;21.40;99.90
21849;DHT22;11089;49.852;19.700;2023-07-13T15:44:47;21.60;1.00
21849;DHT22;11089;49.852;19.700;2023-07-13T15:47:49;21.60;99.90
21849;DHT22;11089;49.852;19.700;2023-07-13T15:50:53;21.70;1.00
21849;DHT22;11089;49.852;19.700;2023-07-13T15:53:59;21.70;1.00
21849;DHT22;11089;49.852;19.700;2023-07-13T15:57:04;21.70;1.00
21849;DHT22;11089;49.852;19.700;2023-07-13T16:00:25;21.70;99.90
21849;DHT22;11089;49.852;19.700;2023-07-13T16:03:26;21.60;99.90
21849;DHT22;11089;49.852;19.700;2023-07-13T16:06:33;21.60;99.90
21849;DHT22;11089;49.852;19.700;2023-07-13T16:09:35;21.60;99.90
21849;DHT22;11089;49.852;19.700;2023-07-13T16:12:36;21.60;1.00
21849;DHT22;11089;49.852;19.700;2023-07-13T16:15:37;21.40;1.00
21849;DHT22;11089;49.852;19.700;2023-07-13T16:18:38;21.40;1.00
21849;DHT22;11089;49.852;19.700;2023-07-13T16:21:44;21.20;1.00
21849;DHT22;11089;49.852;19.700;2023-07-13T16:24:46;21.10;1.00
21849;DHT22;11089;49.852;19.700;2023-07-13T16:27:48;21.10;1.00
21849;DHT22;11089;49.852;19.700;2023-07-13T16:30:49;21.20;99.90
21849;DHT22;11089;49.852;19.700;2023-07-13T16:33:52;21.30;1.00
21849;DHT22;11089;49.852;19.700;2023-07-13T16:36:54;21.30;1.00
21849;DHT22;11089;49.852;19.700;2023-07-13T16:39:57;21.30;1.00
21849;DHT22;11089;49.852;19.700;2023-07-13T16:42:59;21.20;1.00
21849;DHT22;11089;49.852;19.700;2023-07-13T16:46:00;21.30;1.00
21849;DHT22;11089;49.852;19.700;2023-07-13T16:52:20;21.00;99.90
21849;DHT22;11089;49.852;19.700;2023-07-13T16:55:22;20.80;99.90
21849;DHT22;11089;49.852;19.700;2023-07-13T16:58:29;20.70;99.90
21849;DHT22;11089;49.852;19.700;2023-07-13T17:01:31;20.70;1.00
21849;DHT22;11089;49.852;19.700;2023-07-13T17:04:32;20.80;1.00
21849;DHT22;11089;49.852;19.700;2023-07-13T17:07:35;21.00;1.00
21849;DHT22;11089;49.852;19.700;2023-07-13T17:10:36;21.10;1.00
21849;DHT22;11089;49.852;19.700;2023-07-13T17:13:37;21.00;1.00
21849;DHT22;11089;49.852;19.700;2023-07-13T17:16:38;21.00;1.00
21849;DHT22;11089;49.852;19.700;2023-07-13T17:19:39;20.90;1.00
21849;DHT22;11089;49.852;19.700;2023-07-13T17:22:40;20.60;1.00
21849;DHT22;11089;49.852;19.700;2023-07-13T17:25:41;20.50;1.00
21849;DHT22;11089;49.852;19.700;2023-07-13T17:28:42;20.50;1.00
21849;DHT22;11089;49.852;19.700;2023-07-13T17:31:43;20.40;99.90
21849;DHT22;11089;49.852;19.700;2023-07-13T17:34:48;20.20;99.90
21849;DHT22;11089;49.852;19.700;2023-07-13T17:38:07;20.40;99.90
21849;DHT22;11089;49.852;19.700;2023-07-13T17:41:10;20.40;1.00
21849;DHT22;11089;49.852;19.700;2023-07-13T17:44:15;20.30;99.90
21849;DHT22;11089;49.852;19.700;2023-07-13T17:47:26;20.30;99.90
21849;DHT22;11089;49.852;19.700;2023-07-13T17:50:32;20.20;99.90
21849;DHT22;11089;49.852;19.700;2023-07-13T17:53:36;20.20;1.00
21849;DHT22;11089;49.852;19.700;2023-07-13T17:56:39;20.20;1.00
21849;DHT22;11089;49.852;19.700;2023-07-13T17:59:40;20.20;1.00
21849;DHT22;11089;49.852;19.700;2023-07-13T18:02:41;20.30;1.00
21849;DHT22;11089;49.852;19.700;2023-07-13T18:05:42;20.10;99.90
21849;DHT22;11089;49.852;19.700;2023-07-13T18:08:55;20.10;1.00
21849;DHT22;11089;49.852;19.700;2023-07-13T18:11:56;20.00;99.90
21849;DHT22;11089;49.852;19.700;2023-07-13T18:14:58;20.00;1.00
21849;DHT22;11089;49.852;19.700;2023-07-13T18:18:00;19.90;99.90
21849;DHT22;11089;49.852;19.700;2023-07-13T18:21:04;20.00;99.90
21849;DHT22;11089;49.852;19.700;2023-07-13T18:24:09;19.90;99.90
21849;DHT22;11089;49.852;19.700;2023-07-13T18:27:12;19.90;35.60
21849;DHT22;11089;49.852;19.700;2023-07-13T18:30:19;19.70;1.00
21849;DHT22;11089;49.852;19.700;2023-07-13T18:33:31;19.90;99.90
21849;DHT22;11089;49.852;19.700;2023-07-13T18:36:32;19.80;1.00
21849;DHT22;11089;49.852;19.700;2023-07-13T18:39:33;19.80;99.90
21849;DHT22;11089;49.852;19.700;2023-07-13T18:42:34;19.90;1.00
21849;DHT22;11089;49.852;19.700;2023-07-13T18:45:36;19.70;1.00
21849;DHT22;11089;49.852;19.700;2023-07-13T18:48:37;19.70;1.00
21849;DHT22;11089;49.852;19.700;2023-07-13T18:51:38;19.70;1.00
21849;DHT22;11089;49.852;19.700;2023-07-13T18:54:39;19.70;1.00
21849;DHT22;11089;49.852;19.700;2023-07-13T18:57:41;19.60;1.00
21849;DHT22;11089;49.852;19.700;2023-07-13T19:00:42;19.70;1.00
21849;DHT22;11089;49.852;19.700;2023-07-13T19:03:43;19.70;1.00
21849;DHT22;11089;49.852;19.700;2023-07-13T19:06:44;19.60;1.00
21849;DHT22;11089;49.852;19.700;2023-07-13T19:09:45;19.50;99.90
21849;DHT22;11089;49.852;19.700;2023-07-13T19:12:48;19.50;99.90
21849;DHT22;11089;49.852;19.700;2023-07-13T19:15:53;19.50;99.90
21849;DHT22;11089;49.852;19.700;2023-07-13T19:18:54;19.60;1.00
21849;DHT22;11089;49.852;19.700;2023-07-13T19:21:56;19.70;1.00
21849;DHT22;11089;49.852;19.700;2023-07-13T19:24:58;19.40;1.00
21849;DHT22;11089;49.852;19.700;2023-07-13T19:28:15;19.30;1.00
21849;DHT22;11089;49.852;19.700;2023-07-13T19:31:27;19.30;1.00
21849;DHT22;11089;49.852;19.700;2023-07-13T19:34:33;19.30;1.00
21849;DHT22;11089;49.852;19.700;2023-07-13T19:37:36;19.20;1.00